sensor_id;sensor_type;location;lat;lon;timestamp;P1;durP1;ratioP1;P2;durP2;ratioP2
83288;SDS011;73193;50.866;5.420;2024-03-22T00:01:27;27.48;;;14.05;;
83288;SDS011;73193;50.866;5.420;2024-03-22T00:02:58;24.50;;;13.25;;
83288;SDS011;73193;50.866;5.420;2024-03-22T00:04:29;28.27;;;15.50;;
83288;SDS011;73193;50.866;5.420;2024-03-22T00:05:59;30.45;;;14.27;;
83288;SDS011;73193;50.866;5.420;2024-03-22T00:07:30;28.33;;;14.57;;
83288;SDS011;73193;50.866;5.420;2024-03-22T00:09:01;27.88;;;14.25;;
83288;SDS011;73193;50.866;5.420;2024-03-22T00:10:31;26.65;;;14.20;;
83288;SDS011;73193;50.866;5.420;2024-03-22T00:12:02;31.63;;;15.00;;
83288;SDS011;73193;50.866;5.420;2024-03-22T00:13:34;27.98;;;14.68;;
83288;SDS011;73193;50.866;5.420;2024-03-22T00:15:05;30.10;;;15.18;;
83288;SDS011;73193;50.866;5.420;2024-03-22T00:16:36;27.73;;;13.95;;
83288;SDS011;73193;50.866;5.420;2024-03-22T00:18:07;27.95;;;14.75;;
83288;SDS011;73193;50.866;5.420;2024-03-22T00:19:37;28.58;;;12.80;;
83288;SDS011;73193;50.866;5.420;2024-03-22T00:21:08;32.35;;;14.95;;
83288;SDS011;73193;50.866;5.420;2024-03-22T00:22:38;28.45;;;14.30;;
83288;SDS011;73193;50.866;5.420;2024-03-22T00:24:09;27.73;;;14.55;;
83288;SDS011;73193;50.866;5.420;2024-03-22T00:25:40;27.83;;;14.65;;
83288;SDS011;73193;50.866;5.420;2024-03-22T00:27:10;25.23;;;13.95;;
83288;SDS011;73193;50.866;5.420;2024-03-22T00:28:42;26.17;;;14.63;;
83288;SDS011;73193;50.866;5.420;2024-03-22T00:30:13;25.77;;;14.13;;
83288;SDS011;73193;50.866;5.420;2024-03-22T00:31:44;27.00;;;14.50;;
83288;SDS011;73193;50.866;5.420;2024-03-22T00:33:15;25.33;;;14.15;;
83288;SDS011;73193;50.866;5.420;2024-03-22T00:34:45;27.02;;;14.20;;
83288;SDS011;73193;50.866;5.420;2024-03-22T00:36:16;26.60;;;14.35;;
83288;SDS011;73193;50.866;5.420;2024-03-22T00:37:47;27.08;;;15.18;;
83288;SDS011;73193;50.866;5.420;2024-03-22T00:39:17;24.77;;;13.63;;
83288;SDS011;73193;50.866;5.420;2024-03-22T00:40:48;26.80;;;13.40;;
83288;SDS011;73193;50.866;5.420;2024-03-22T00:42:19;26.83;;;13.05;;
83288;SDS011;73193;50.866;5.420;2024-03-22T00:43:49;25.17;;;13.43;;
83288;SDS011;73193;50.866;5.420;2024-03-22T00:45:20;28.45;;;13.63;;
83288;SDS011;73193;50.866;5.420;2024-03-22T00:46:50;27.17;;;14.50;;
83288;SDS011;73193;50.866;5.420;2024-03-22T00:48:21;27.83;;;14.57;;
83288;SDS011;73193;50.866;5.420;2024-03-22T00:49:52;25.10;;;12.90;;
83288;SDS011;73193;50.866;5.420;2024-03-22T00:51:22;26.27;;;13.60;;
83288;SDS011;73193;50.866;5.420;2024-03-22T00:52:54;24.38;;;13.45;;
83288;SDS011;73193;50.866;5.420;2024-03-22T00:54:27;24.25;;;13.30;;
83288;SDS011;73193;50.866;5.420;2024-03-22T00:55:58;27.60;;;13.70;;
83288;SDS011;73193;50.866;5.420;2024-03-22T00:57:29;25.98;;;12.98;;
83288;SDS011;73193;50.866;5.420;2024-03-22T00:58:59;24.33;;;11.93;;
83288;SDS011;73193;50.866;5.420;2024-03-22T01:00:30;24.50;;;13.00;;
83288;SDS011;73193;50.866;5.420;2024-03-22T01:02:01;23.65;;;12.88;;
83288;SDS011;73193;50.866;5.420;2024-03-22T01:03:33;25.02;;;12.75;;
83288;SDS011;73193;50.866;5.420;2024-03-22T01:05:04;25.35;;;12.68;;
83288;SDS011;73193;50.866;5.420;2024-03-22T01:06:35;26.73;;;13.13;;
83288;SDS011;73193;50.866;5.420;2024-03-22T01:08:06;28.83;;;13.63;;
83288;SDS011;73193;50.866;5.420;2024-03-22T01:09:36;22.42;;;13.45;;
83288;SDS011;73193;50.866;5.420;2024-03-22T01:11:07;22.92;;;12.57;;
83288;SDS011;73193;50.866;5.420;2024-03-22T01:12:38;24.27;;;12.43;;
83288;SDS011;73193;50.866;5.420;2024-03-22T01:15:39;25.10;;;12.15;;
83288;SDS011;73193;50.866;5.420;2024-03-22T01:17:10;24.75;;;12.63;;
83288;SDS011;73193;50.866;5.420;2024-03-22T01:18:41;22.75;;;13.63;;
83288;SDS011;73193;50.866;5.420;2024-03-22T01:20:11;28.23;;;13.38;;
83288;SDS011;73193;50.866;5.420;2024-03-22T01:21:42;21.42;;;12.43;;
83288;SDS011;73193;50.866;5.420;2024-03-22T01:23:12;24.15;;;13.05;;
83288;SDS011;73193;50.866;5.420;2024-03-22T01:24:43;24.48;;;13.23;;
83288;SDS011;73193;50.866;5.420;2024-03-22T01:27:45;25.40;;;12.90;;
83288;SDS011;73193;50.866;5.420;2024-03-22T01:29:15;25.10;;;12.57;;
83288;SDS011;73193;50.866;5.420;2024-03-22T01:30:46;24.90;;;13.40;;
83288;SDS011;73193;50.866;5.420;2024-03-22T01:32:17;25.00;;;12.73;;
83288;SDS011;73193;50.866;5.420;2024-03-22T01:33:47;26.17;;;13.10;;
83288;SDS011;73193;50.866;5.420;2024-03-22T01:35:18;25.17;;;12.10;;
83288;SDS011;73193;50.866;5.420;2024-03-22T01:36:48;29.60;;;14.23;;
83288;SDS011;73193;50.866;5.420;2024-03-22T01:38:19;23.42;;;13.40;;
83288;SDS011;73193;50.866;5.420;2024-03-22T01:39:50;22.33;;;12.43;;
83288;SDS011;73193;50.866;5.420;2024-03-22T01:41:21;28.15;;;14.60;;
83288;SDS011;73193;50.866;5.420;2024-03-22T01:42:58;24.70;;;13.85;;
83288;SDS011;73193;50.866;5.420;2024-03-22T01:44:31;22.90;;;12.90;;
83288;SDS011;73193;50.866;5.420;2024-03-22T01:46:02;25.33;;;12.93;;
83288;SDS011;73193;50.866;5.420;2024-03-22T01:47:34;26.35;;;13.77;;
83288;SDS011;73193;50.866;5.420;2024-03-22T01:49:05;24.35;;;13.73;;
83288;SDS011;73193;50.866;5.420;2024-03-22T01:50:38;24.98;;;14.48;;
83288;SDS011;73193;50.866;5.420;2024-03-22T01:52:09;24.30;;;12.80;;
83288;SDS011;73193;50.866;5.420;2024-03-22T01:53:40;27.13;;;14.43;;
83288;SDS011;73193;50.866;5.420;2024-03-22T01:55:11;25.80;;;13.73;;
83288;SDS011;73193;50.866;5.420;2024-03-22T01:56:42;23.60;;;13.48;;
83288;SDS011;73193;50.866;5.420;2024-03-22T01:58:13;25.30;;;12.30;;
83288;SDS011;73193;50.866;5.420;2024-03-22T01:59:44;26.13;;;14.18;;
83288;SDS011;73193;50.866;5.420;2024-03-22T02:01:19;25.98;;;13.25;;
83288;SDS011;73193;50.866;5.420;2024-03-22T02:02:49;24.48;;;13.77;;
83288;SDS011;73193;50.866;5.420;2024-03-22T02:04:20;26.00;;;13.82;;
83288;SDS011;73193;50.866;5.420;2024-03-22T02:05:51;25.70;;;13.60;;
83288;SDS011;73193;50.866;5.420;2024-03-22T02:07:22;26.15;;;14.07;;
83288;SDS011;73193;50.866;5.420;2024-03-22T02:08:52;26.70;;;13.75;;
83288;SDS011;73193;50.866;5.420;2024-03-22T02:10:23;28.05;;;14.77;;
83288;SDS011;73193;50.866;5.420;2024-03-22T02:11:54;27.25;;;14.60;;
83288;SDS011;73193;50.866;5.420;2024-03-22T02:13:25;25.83;;;13.80;;
83288;SDS011;73193;50.866;5.420;2024-03-22T02:14:58;26.08;;;14.23;;
83288;SDS011;73193;50.866;5.420;2024-03-22T02:16:29;27.38;;;14.57;;
83288;SDS011;73193;50.866;5.420;2024-03-22T02:18:00;26.67;;;14.32;;
83288;SDS011;73193;50.866;5.420;2024-03-22T02:19:30;26.70;;;12.85;;
83288;SDS011;73193;50.866;5.420;2024-03-22T02:21:01;29.02;;;15.18;;
83288;SDS011;73193;50.866;5.420;2024-03-22T02:22:32;26.35;;;15.05;;
83288;SDS011;73193;50.866;5.420;2024-03-22T02:24:03;23.80;;;13.65;;
83288;SDS011;73193;50.866;5.420;2024-03-22T02:25:34;31.02;;;16.40;;
83288;SDS011;73193;50.866;5.420;2024-03-22T02:27:04;27.65;;;15.20;;
83288;SDS011;73193;50.866;5.420;2024-03-22T02:28:35;26.73;;;14.70;;
83288;SDS011;73193;50.866;5.420;2024-03-22T02:30:06;27.23;;;14.77;;
83288;SDS011;73193;50.866;5.420;2024-03-22T02:31:37;27.77;;;15.63;;
83288;SDS011;73193;50.866;5.420;2024-03-22T02:33:07;27.73;;;14.55;;
83288;SDS011;73193;50.866;5.420;2024-03-22T02:34:38;26.55;;;14.45;;
83288;SDS011;73193;50.866;5.420;2024-03-22T02:36:09;28.88;;;14.93;;
83288;SDS011;73193;50.866;5.420;2024-03-22T02:37:39;29.38;;;15.75;;
83288;SDS011;73193;50.866;5.420;2024-03-22T02:39:10;27.30;;;14.85;;
83288;SDS011;73193;50.866;5.420;2024-03-22T02:40:43;29.45;;;16.00;;
83288;SDS011;73193;50.866;5.420;2024-03-22T02:42:14;29.63;;;16.13;;
83288;SDS011;73193;50.866;5.420;2024-03-22T02:43:45;28.27;;;15.60;;
83288;SDS011;73193;50.866;5.420;2024-03-22T02:45:15;23.23;;;13.63;;
83288;SDS011;73193;50.866;5.420;2024-03-22T02:46:46;27.75;;;15.50;;
83288;SDS011;73193;50.866;5.420;2024-03-22T02:48:17;30.38;;;15.50;;
83288;SDS011;73193;50.866;5.420;2024-03-22T02:49:47;32.90;;;15.00;;
83288;SDS011;73193;50.866;5.420;2024-03-22T02:51:18;30.65;;;16.80;;
83288;SDS011;73193;50.866;5.420;2024-03-22T02:52:49;30.52;;;15.63;;
83288;SDS011;73193;50.866;5.420;2024-03-22T02:54:20;28.92;;;16.08;;
83288;SDS011;73193;50.866;5.420;2024-03-22T02:55:50;24.80;;;14.70;;
83288;SDS011;73193;50.866;5.420;2024-03-22T02:57:21;30.60;;;15.55;;
83288;SDS011;73193;50.866;5.420;2024-03-22T02:58:52;28.40;;;15.80;;
83288;SDS011;73193;50.866;5.420;2024-03-22T03:00:22;32.05;;;15.98;;
83288;SDS011;73193;50.866;5.420;2024-03-22T03:01:53;28.80;;;16.40;;
83288;SDS011;73193;50.866;5.420;2024-03-22T03:03:24;28.90;;;16.23;;
83288;SDS011;73193;50.866;5.420;2024-03-22T03:04:55;26.55;;;15.75;;
83288;SDS011;73193;50.866;5.420;2024-03-22T03:06:25;28.75;;;15.68;;
83288;SDS011;73193;50.866;5.420;2024-03-22T03:07:56;27.33;;;14.55;;
83288;SDS011;73193;50.866;5.420;2024-03-22T03:09:26;26.75;;;14.13;;
83288;SDS011;73193;50.866;5.420;2024-03-22T03:10:57;30.92;;;15.13;;
83288;SDS011;73193;50.866;5.420;2024-03-22T03:12:28;26.33;;;14.80;;
83288;SDS011;73193;50.866;5.420;2024-03-22T03:13:59;26.55;;;14.55;;
83288;SDS011;73193;50.866;5.420;2024-03-22T03:15:29;28.98;;;15.93;;
83288;SDS011;73193;50.866;5.420;2024-03-22T03:17:00;27.02;;;15.70;;
83288;SDS011;73193;50.866;5.420;2024-03-22T03:18:31;26.02;;;15.25;;
83288;SDS011;73193;50.866;5.420;2024-03-22T03:20:01;27.77;;;13.80;;
83288;SDS011;73193;50.866;5.420;2024-03-22T03:21:35;27.25;;;15.77;;
83288;SDS011;73193;50.866;5.420;2024-03-22T03:23:06;26.95;;;14.00;;
83288;SDS011;73193;50.866;5.420;2024-03-22T03:24:36;28.27;;;16.30;;
83288;SDS011;73193;50.866;5.420;2024-03-22T03:26:07;32.40;;;15.90;;
83288;SDS011;73193;50.866;5.420;2024-03-22T03:27:37;28.88;;;15.80;;
83288;SDS011;73193;50.866;5.420;2024-03-22T03:29:08;29.55;;;15.45;;
83288;SDS011;73193;50.866;5.420;2024-03-22T03:30:39;31.15;;;15.25;;
83288;SDS011;73193;50.866;5.420;2024-03-22T03:32:09;26.40;;;16.13;;
83288;SDS011;73193;50.866;5.420;2024-03-22T03:33:40;28.05;;;16.42;;
83288;SDS011;73193;50.866;5.420;2024-03-22T03:35:11;27.20;;;14.43;;
83288;SDS011;73193;50.866;5.420;2024-03-22T03:36:41;29.33;;;15.18;;
83288;SDS011;73193;50.866;5.420;2024-03-22T03:38:12;27.92;;;14.70;;
83288;SDS011;73193;50.866;5.420;2024-03-22T03:39:43;31.58;;;15.05;;
83288;SDS011;73193;50.866;5.420;2024-03-22T03:41:14;25.75;;;14.23;;
83288;SDS011;73193;50.866;5.420;2024-03-22T03:42:44;28.40;;;15.38;;
83288;SDS011;73193;50.866;5.420;2024-03-22T03:44:15;30.17;;;14.35;;
83288;SDS011;73193;50.866;5.420;2024-03-22T03:45:45;26.70;;;14.98;;
83288;SDS011;73193;50.866;5.420;2024-03-22T03:47:16;26.20;;;14.95;;
83288;SDS011;73193;50.866;5.420;2024-03-22T03:48:47;28.40;;;15.00;;
83288;SDS011;73193;50.866;5.420;2024-03-22T03:50:17;29.25;;;16.17;;
83288;SDS011;73193;50.866;5.420;2024-03-22T03:51:48;28.45;;;15.52;;
83288;SDS011;73193;50.866;5.420;2024-03-22T03:53:19;28.90;;;15.05;;
83288;SDS011;73193;50.866;5.420;2024-03-22T03:54:50;28.83;;;14.43;;
83288;SDS011;73193;50.866;5.420;2024-03-22T03:56:24;30.52;;;15.40;;
83288;SDS011;73193;50.866;5.420;2024-03-22T03:57:54;26.70;;;14.90;;
83288;SDS011;73193;50.866;5.420;2024-03-22T03:59:25;24.10;;;14.23;;
83288;SDS011;73193;50.866;5.420;2024-03-22T04:00:56;26.73;;;14.95;;
83288;SDS011;73193;50.866;5.420;2024-03-22T04:02:27;29.45;;;16.95;;
83288;SDS011;73193;50.866;5.420;2024-03-22T04:03:57;25.48;;;13.98;;
83288;SDS011;73193;50.866;5.420;2024-03-22T04:05:28;26.45;;;14.63;;
83288;SDS011;73193;50.866;5.420;2024-03-22T04:06:58;29.40;;;15.38;;
83288;SDS011;73193;50.866;5.420;2024-03-22T04:08:29;30.85;;;16.20;;
83288;SDS011;73193;50.866;5.420;2024-03-22T04:10:02;29.23;;;15.85;;
83288;SDS011;73193;50.866;5.420;2024-03-22T04:11:33;27.65;;;14.75;;
83288;SDS011;73193;50.866;5.420;2024-03-22T04:13:04;27.50;;;15.20;;
83288;SDS011;73193;50.866;5.420;2024-03-22T04:14:34;27.15;;;14.48;;
83288;SDS011;73193;50.866;5.420;2024-03-22T04:16:05;28.52;;;15.05;;
83288;SDS011;73193;50.866;5.420;2024-03-22T04:17:36;29.10;;;15.60;;
83288;SDS011;73193;50.866;5.420;2024-03-22T04:19:06;25.30;;;14.63;;
83288;SDS011;73193;50.866;5.420;2024-03-22T04:20:37;27.58;;;15.45;;
83288;SDS011;73193;50.866;5.420;2024-03-22T04:22:08;24.15;;;14.35;;
83288;SDS011;73193;50.866;5.420;2024-03-22T04:23:39;28.88;;;14.60;;
83288;SDS011;73193;50.866;5.420;2024-03-22T04:25:09;28.73;;;14.80;;
83288;SDS011;73193;50.866;5.420;2024-03-22T04:26:40;25.92;;;13.95;;
83288;SDS011;73193;50.866;5.420;2024-03-22T04:28:10;28.70;;;14.98;;
83288;SDS011;73193;50.866;5.420;2024-03-22T04:29:41;25.20;;;14.30;;
83288;SDS011;73193;50.866;5.420;2024-03-22T04:31:12;27.17;;;14.02;;
83288;SDS011;73193;50.866;5.420;2024-03-22T04:32:45;23.95;;;13.02;;
83288;SDS011;73193;50.866;5.420;2024-03-22T04:34:16;27.95;;;14.63;;
83288;SDS011;73193;50.866;5.420;2024-03-22T04:35:47;26.00;;;14.32;;
83288;SDS011;73193;50.866;5.420;2024-03-22T04:37:18;23.45;;;12.73;;
83288;SDS011;73193;50.866;5.420;2024-03-22T04:38:48;27.90;;;13.88;;
83288;SDS011;73193;50.866;5.420;2024-03-22T04:40:19;26.15;;;13.43;;
83288;SDS011;73193;50.866;5.420;2024-03-22T04:41:49;26.77;;;13.65;;
83288;SDS011;73193;50.866;5.420;2024-03-22T04:43:20;28.08;;;14.30;;
83288;SDS011;73193;50.866;5.420;2024-03-22T04:44:51;24.20;;;13.38;;
83288;SDS011;73193;50.866;5.420;2024-03-22T04:46:21;24.80;;;13.32;;
83288;SDS011;73193;50.866;5.420;2024-03-22T04:47:52;25.27;;;13.57;;
83288;SDS011;73193;50.866;5.420;2024-03-22T04:49:23;24.33;;;13.70;;
83288;SDS011;73193;50.866;5.420;2024-03-22T04:50:53;25.33;;;13.48;;
83288;SDS011;73193;50.866;5.420;2024-03-22T04:52:24;25.65;;;14.10;;
83288;SDS011;73193;50.866;5.420;2024-03-22T04:53:54;25.00;;;13.85;;
83288;SDS011;73193;50.866;5.420;2024-03-22T04:55:25;27.05;;;13.55;;
83288;SDS011;73193;50.866;5.420;2024-03-22T04:56:56;25.92;;;13.90;;
83288;SDS011;73193;50.866;5.420;2024-03-22T04:58:26;25.13;;;12.77;;
83288;SDS011;73193;50.866;5.420;2024-03-22T04:59:57;26.75;;;13.35;;
83288;SDS011;73193;50.866;5.420;2024-03-22T05:01:27;28.20;;;14.18;;
83288;SDS011;73193;50.866;5.420;2024-03-22T05:02:58;25.90;;;13.30;;
83288;SDS011;73193;50.866;5.420;2024-03-22T05:04:29;25.20;;;13.82;;
83288;SDS011;73193;50.866;5.420;2024-03-22T05:05:59;25.15;;;13.38;;
83288;SDS011;73193;50.866;5.420;2024-03-22T05:07:34;22.98;;;12.65;;
83288;SDS011;73193;50.866;5.420;2024-03-22T05:09:05;23.77;;;13.20;;
83288;SDS011;73193;50.866;5.420;2024-03-22T05:10:35;22.35;;;12.40;;
83288;SDS011;73193;50.866;5.420;2024-03-22T05:12:06;24.15;;;13.40;;
83288;SDS011;73193;50.866;5.420;2024-03-22T05:13:37;25.02;;;12.45;;
83288;SDS011;73193;50.866;5.420;2024-03-22T05:15:10;27.60;;;13.57;;
83288;SDS011;73193;50.866;5.420;2024-03-22T05:16:40;26.83;;;14.60;;
83288;SDS011;73193;50.866;5.420;2024-03-22T05:18:11;26.15;;;14.45;;
83288;SDS011;73193;50.866;5.420;2024-03-22T05:19:42;27.55;;;13.98;;
83288;SDS011;73193;50.866;5.420;2024-03-22T05:21:13;27.23;;;14.60;;
83288;SDS011;73193;50.866;5.420;2024-03-22T05:22:43;24.33;;;13.68;;
83288;SDS011;73193;50.866;5.420;2024-03-22T05:24:14;26.50;;;14.60;;
83288;SDS011;73193;50.866;5.420;2024-03-22T05:25:44;26.40;;;13.85;;
83288;SDS011;73193;50.866;5.420;2024-03-22T05:27:15;27.27;;;13.73;;
83288;SDS011;73193;50.866;5.420;2024-03-22T05:28:46;28.90;;;14.18;;
83288;SDS011;73193;50.866;5.420;2024-03-22T05:30:17;28.90;;;15.10;;
83288;SDS011;73193;50.866;5.420;2024-03-22T05:31:48;27.25;;;15.30;;
83288;SDS011;73193;50.866;5.420;2024-03-22T05:33:21;27.83;;;15.10;;
83288;SDS011;73193;50.866;5.420;2024-03-22T05:34:52;27.73;;;15.40;;
83288;SDS011;73193;50.866;5.420;2024-03-22T05:37:54;26.13;;;14.63;;
83288;SDS011;73193;50.866;5.420;2024-03-22T05:39:24;30.58;;;16.00;;
83288;SDS011;73193;50.866;5.420;2024-03-22T05:40:55;25.75;;;14.52;;
83288;SDS011;73193;50.866;5.420;2024-03-22T05:42:26;32.10;;;15.77;;
83288;SDS011;73193;50.866;5.420;2024-03-22T05:43:56;28.58;;;15.80;;
83288;SDS011;73193;50.866;5.420;2024-03-22T05:45:27;29.02;;;15.48;;
83288;SDS011;73193;50.866;5.420;2024-03-22T05:46:58;28.75;;;15.57;;
83288;SDS011;73193;50.866;5.420;2024-03-22T05:48:28;29.33;;;15.27;;
83288;SDS011;73193;50.866;5.420;2024-03-22T05:49:59;30.15;;;16.17;;
83288;SDS011;73193;50.866;5.420;2024-03-22T05:51:31;26.98;;;15.02;;
83288;SDS011;73193;50.866;5.420;2024-03-22T05:53:01;32.65;;;16.40;;
83288;SDS011;73193;50.866;5.420;2024-03-22T05:54:33;28.42;;;16.35;;
83288;SDS011;73193;50.866;5.420;2024-03-22T05:56:03;28.67;;;16.23;;
83288;SDS011;73193;50.866;5.420;2024-03-22T05:57:34;26.33;;;15.18;;
83288;SDS011;73193;50.866;5.420;2024-03-22T05:59:05;31.55;;;16.75;;
83288;SDS011;73193;50.866;5.420;2024-03-22T06:00:35;29.20;;;15.93;;
83288;SDS011;73193;50.866;5.420;2024-03-22T06:02:06;28.83;;;16.17;;
83288;SDS011;73193;50.866;5.420;2024-03-22T06:03:37;31.33;;;15.63;;
83288;SDS011;73193;50.866;5.420;2024-03-22T06:05:08;27.10;;;16.10;;
83288;SDS011;73193;50.866;5.420;2024-03-22T06:06:38;26.60;;;15.05;;
83288;SDS011;73193;50.866;5.420;2024-03-22T06:08:09;29.88;;;15.38;;
83288;SDS011;73193;50.866;5.420;2024-03-22T06:09:40;29.52;;;16.45;;
83288;SDS011;73193;50.866;5.420;2024-03-22T06:11:16;25.48;;;14.18;;
83288;SDS011;73193;50.866;5.420;2024-03-22T06:12:47;29.00;;;14.63;;
83288;SDS011;73193;50.866;5.420;2024-03-22T06:14:17;27.15;;;14.88;;
83288;SDS011;73193;50.866;5.420;2024-03-22T06:15:48;26.25;;;15.65;;
83288;SDS011;73193;50.866;5.420;2024-03-22T06:17:19;26.80;;;15.15;;
83288;SDS011;73193;50.866;5.420;2024-03-22T06:18:50;25.15;;;14.05;;
83288;SDS011;73193;50.866;5.420;2024-03-22T06:20:20;26.70;;;15.32;;
83288;SDS011;73193;50.866;5.420;2024-03-22T06:21:51;26.55;;;14.75;;
83288;SDS011;73193;50.866;5.420;2024-03-22T06:23:22;30.05;;;15.85;;
83288;SDS011;73193;50.866;5.420;2024-03-22T06:24:53;26.63;;;15.70;;
83288;SDS011;73193;50.866;5.420;2024-03-22T06:26:23;29.08;;;14.82;;
83288;SDS011;73193;50.866;5.420;2024-03-22T06:27:54;24.83;;;14.48;;
83288;SDS011;73193;50.866;5.420;2024-03-22T06:29:24;30.13;;;15.98;;
83288;SDS011;73193;50.866;5.420;2024-03-22T06:30:55;28.45;;;15.10;;
83288;SDS011;73193;50.866;5.420;2024-03-22T06:32:26;26.33;;;13.98;;
83288;SDS011;73193;50.866;5.420;2024-03-22T06:33:56;26.63;;;15.35;;
83288;SDS011;73193;50.866;5.420;2024-03-22T06:35:32;26.25;;;14.45;;
83288;SDS011;73193;50.866;5.420;2024-03-22T06:37:02;28.42;;;15.70;;
83288;SDS011;73193;50.866;5.420;2024-03-22T06:38:33;27.52;;;15.13;;
83288;SDS011;73193;50.866;5.420;2024-03-22T06:40:04;29.25;;;14.95;;
83288;SDS011;73193;50.866;5.420;2024-03-22T06:41:36;28.52;;;14.18;;
83288;SDS011;73193;50.866;5.420;2024-03-22T06:43:07;28.02;;;15.50;;
83288;SDS011;73193;50.866;5.420;2024-03-22T06:44:39;24.73;;;13.80;;
83288;SDS011;73193;50.866;5.420;2024-03-22T06:46:09;25.50;;;14.68;;
83288;SDS011;73193;50.866;5.420;2024-03-22T06:47:40;28.75;;;14.98;;
83288;SDS011;73193;50.866;5.420;2024-03-22T06:49:11;23.63;;;14.68;;
83288;SDS011;73193;50.866;5.420;2024-03-22T06:50:41;28.58;;;15.05;;
83288;SDS011;73193;50.866;5.420;2024-03-22T06:52:12;25.70;;;14.80;;
83288;SDS011;73193;50.866;5.420;2024-03-22T06:53:43;28.02;;;14.30;;
83288;SDS011;73193;50.866;5.420;2024-03-22T06:55:13;26.42;;;14.90;;
83288;SDS011;73193;50.866;5.420;2024-03-22T06:56:44;28.67;;;14.93;;
83288;SDS011;73193;50.866;5.420;2024-03-22T06:58:14;26.33;;;14.25;;
83288;SDS011;73193;50.866;5.420;2024-03-22T06:59:45;25.05;;;14.10;;
83288;SDS011;73193;50.866;5.420;2024-03-22T07:01:16;25.85;;;14.88;;
83288;SDS011;73193;50.866;5.420;2024-03-22T07:02:46;30.40;;;16.23;;
83288;SDS011;73193;50.866;5.420;2024-03-22T07:04:17;28.15;;;14.48;;
83288;SDS011;73193;50.866;5.420;2024-03-22T07:05:47;26.70;;;15.90;;
83288;SDS011;73193;50.866;5.420;2024-03-22T07:07:18;28.67;;;15.38;;
83288;SDS011;73193;50.866;5.420;2024-03-22T07:08:49;27.52;;;15.57;;
83288;SDS011;73193;50.866;5.420;2024-03-22T07:10:19;31.20;;;14.95;;
83288;SDS011;73193;50.866;5.420;2024-03-22T07:11:52;25.38;;;14.73;;
83288;SDS011;73193;50.866;5.420;2024-03-22T07:13:22;27.92;;;15.43;;
83288;SDS011;73193;50.866;5.420;2024-03-22T07:14:53;27.55;;;14.30;;
83288;SDS011;73193;50.866;5.420;2024-03-22T07:16:24;27.38;;;15.60;;
83288;SDS011;73193;50.866;5.420;2024-03-22T07:17:55;25.35;;;14.05;;
83288;SDS011;73193;50.866;5.420;2024-03-22T07:19:26;28.10;;;15.38;;
83288;SDS011;73193;50.866;5.420;2024-03-22T07:20:58;26.30;;;14.48;;
83288;SDS011;73193;50.866;5.420;2024-03-22T07:22:31;29.90;;;15.43;;
83288;SDS011;73193;50.866;5.420;2024-03-22T07:24:02;25.95;;;14.02;;
83288;SDS011;73193;50.866;5.420;2024-03-22T07:25:33;30.15;;;15.63;;
83288;SDS011;73193;50.866;5.420;2024-03-22T07:27:04;30.23;;;15.30;;
83288;SDS011;73193;50.866;5.420;2024-03-22T07:28:34;32.30;;;14.48;;
83288;SDS011;73193;50.866;5.420;2024-03-22T07:30:05;26.10;;;14.05;;
83288;SDS011;73193;50.866;5.420;2024-03-22T07:31:36;26.63;;;14.90;;
83288;SDS011;73193;50.866;5.420;2024-03-22T07:33:07;21.52;;;11.65;;
83288;SDS011;73193;50.866;5.420;2024-03-22T07:34:37;26.30;;;14.35;;
83288;SDS011;73193;50.866;5.420;2024-03-22T07:36:08;25.15;;;14.18;;
83288;SDS011;73193;50.866;5.420;2024-03-22T07:37:39;29.80;;;14.43;;
83288;SDS011;73193;50.866;5.420;2024-03-22T07:39:09;22.63;;;12.02;;
83288;SDS011;73193;50.866;5.420;2024-03-22T07:40:40;27.02;;;14.10;;
83288;SDS011;73193;50.866;5.420;2024-03-22T07:42:11;22.42;;;12.45;;
83288;SDS011;73193;50.866;5.420;2024-03-22T07:43:41;23.65;;;13.20;;
83288;SDS011;73193;50.866;5.420;2024-03-22T07:45:12;22.10;;;13.00;;
83288;SDS011;73193;50.866;5.420;2024-03-22T07:46:46;25.50;;;12.95;;
83288;SDS011;73193;50.866;5.420;2024-03-22T07:48:16;23.98;;;12.88;;
83288;SDS011;73193;50.866;5.420;2024-03-22T07:49:47;23.67;;;12.30;;
83288;SDS011;73193;50.866;5.420;2024-03-22T07:51:18;21.98;;;11.55;;
83288;SDS011;73193;50.866;5.420;2024-03-22T07:52:49;21.73;;;12.73;;
83288;SDS011;73193;50.866;5.420;2024-03-22T07:54:20;21.50;;;13.25;;
83288;SDS011;73193;50.866;5.420;2024-03-22T07:55:51;20.55;;;11.32;;
83288;SDS011;73193;50.866;5.420;2024-03-22T07:57:21;21.38;;;11.52;;
83288;SDS011;73193;50.866;5.420;2024-03-22T08:00:24;22.67;;;12.90;;
83288;SDS011;73193;50.866;5.420;2024-03-22T08:01:57;18.27;;;10.52;;
83288;SDS011;73193;50.866;5.420;2024-03-22T08:03:28;21.42;;;12.55;;
83288;SDS011;73193;50.866;5.420;2024-03-22T08:04:58;23.70;;;13.50;;
83288;SDS011;73193;50.866;5.420;2024-03-22T08:06:29;20.52;;;12.85;;
83288;SDS011;73193;50.866;5.420;2024-03-22T08:08:00;24.90;;;11.57;;
83288;SDS011;73193;50.866;5.420;2024-03-22T08:09:30;22.38;;;12.43;;
83288;SDS011;73193;50.866;5.420;2024-03-22T08:11:01;22.42;;;12.07;;
83288;SDS011;73193;50.866;5.420;2024-03-22T08:12:32;24.42;;;11.48;;
83288;SDS011;73193;50.866;5.420;2024-03-22T08:14:02;24.10;;;12.23;;
83288;SDS011;73193;50.866;5.420;2024-03-22T08:15:33;23.27;;;12.65;;
83288;SDS011;73193;50.866;5.420;2024-03-22T08:17:04;25.33;;;13.55;;
83288;SDS011;73193;50.866;5.420;2024-03-22T08:18:36;20.83;;;11.68;;
83288;SDS011;73193;50.866;5.420;2024-03-22T08:20:07;18.65;;;10.63;;
83288;SDS011;73193;50.866;5.420;2024-03-22T08:21:38;16.60;;;9.88;;
83288;SDS011;73193;50.866;5.420;2024-03-22T08:23:09;20.95;;;11.73;;
83288;SDS011;73193;50.866;5.420;2024-03-22T08:24:40;22.33;;;12.95;;
83288;SDS011;73193;50.866;5.420;2024-03-22T08:26:11;19.25;;;11.38;;
83288;SDS011;73193;50.866;5.420;2024-03-22T08:27:41;22.45;;;10.52;;
83288;SDS011;73193;50.866;5.420;2024-03-22T08:29:12;22.52;;;12.05;;
83288;SDS011;73193;50.866;5.420;2024-03-22T08:30:44;24.52;;;13.55;;
83288;SDS011;73193;50.866;5.420;2024-03-22T08:32:15;25.35;;;12.52;;
83288;SDS011;73193;50.866;5.420;2024-03-22T08:33:46;21.52;;;13.20;;
83288;SDS011;73193;50.866;5.420;2024-03-22T08:35:16;19.77;;;10.27;;
83288;SDS011;73193;50.866;5.420;2024-03-22T08:36:47;24.85;;;12.88;;
83288;SDS011;73193;50.866;5.420;2024-03-22T08:38:18;24.50;;;12.73;;
83288;SDS011;73193;50.866;5.420;2024-03-22T08:39:48;25.08;;;13.57;;
83288;SDS011;73193;50.866;5.420;2024-03-22T08:41:19;21.92;;;12.63;;
83288;SDS011;73193;50.866;5.420;2024-03-22T08:42:50;22.17;;;11.55;;
83288;SDS011;73193;50.866;5.420;2024-03-22T08:44:20;18.63;;;10.88;;
83288;SDS011;73193;50.866;5.420;2024-03-22T08:45:51;22.55;;;11.75;;
83288;SDS011;73193;50.866;5.420;2024-03-22T08:47:22;19.77;;;9.25;;
83288;SDS011;73193;50.866;5.420;2024-03-22T08:48:53;20.63;;;12.07;;
83288;SDS011;73193;50.866;5.420;2024-03-22T08:50:24;22.20;;;12.77;;
83288;SDS011;73193;50.866;5.420;2024-03-22T08:51:55;23.50;;;13.25;;
83288;SDS011;73193;50.866;5.420;2024-03-22T08:53:25;23.27;;;13.30;;
83288;SDS011;73193;50.866;5.420;2024-03-22T08:54:56;21.95;;;12.70;;
83288;SDS011;73193;50.866;5.420;2024-03-22T08:56:26;22.27;;;12.73;;
83288;SDS011;73193;50.866;5.420;2024-03-22T08:57:57;21.55;;;11.98;;